sensor_id;sensor_type;location;lat;lon;timestamp;temperature;humidity
44723;DHT22;30451;48.638;10.624;2023-06-14T00:00:40;25.60;38.20
44723;DHT22;30451;48.638;10.624;2023-06-14T00:03:07;25.50;38.20
44723;DHT22;30451;48.638;10.624;2023-06-14T00:05:35;25.50;38.30
44723;DHT22;30451;48.638;10.624;2023-06-14T00:08:06;25.50;38.20
44723;DHT22;30451;48.638;10.624;2023-06-14T00:10:34;25.50;38.20
44723;DHT22;30451;48.638;10.624;2023-06-14T00:13:01;25.50;38.30
44723;DHT22;30451;48.638;10.624;2023-06-14T00:15:27;25.50;38.30
44723;DHT22;30451;48.638;10.624;2023-06-14T00:17:53;25.50;38.30
44723;DHT22;30451;48.638;10.624;2023-06-14T00:20:20;25.50;38.40
44723;DHT22;30451;48.638;10.624;2023-06-14T00:22:46;25.50;38.40
44723;DHT22;30451;48.638;10.624;2023-06-14T00:25:13;25.40;38.40
44723;DHT22;30451;48.638;10.624;2023-06-14T00:27:39;25.40;38.40
44723;DHT22;30451;48.638;10.624;2023-06-14T00:30:05;25.40;38.30
44723;DHT22;30451;48.638;10.624;2023-06-14T00:32:31;25.40;38.40
44723;DHT22;30451;48.638;10.624;2023-06-14T00:34:56;25.40;38.40
44723;DHT22;30451;48.638;10.624;2023-06-14T00:37:22;25.40;38.40
44723;DHT22;30451;48.638;10.624;2023-06-14T00:39:47;25.40;38.40
44723;DHT22;30451;48.638;10.624;2023-06-14T00:42:26;25.40;38.50
44723;DHT22;30451;48.638;10.624;2023-06-14T00:44:52;25.40;38.50
44723;DHT22;30451;48.638;10.624;2023-06-14T00:47:18;25.40;38.50
44723;DHT22;30451;48.638;10.624;2023-06-14T00:49:46;25.40;38.50
44723;DHT22;30451;48.638;10.624;2023-06-14T00:52:13;25.40;38.60
44723;DHT22;30451;48.638;10.624;2023-06-14T00:54:40;25.30;38.50
44723;DHT22;30451;48.638;10.624;2023-06-14T00:57:06;25.40;38.60
44723;DHT22;30451;48.638;10.624;2023-06-14T00:59:34;25.40;38.70
44723;DHT22;30451;48.638;10.624;2023-06-14T01:02:00;25.30;38.60
44723;DHT22;30451;48.638;10.624;2023-06-14T01:04:26;25.30;38.60
44723;DHT22;30451;48.638;10.624;2023-06-14T01:10:01;25.30;38.60
44723;DHT22;30451;48.638;10.624;2023-06-14T01:15:17;25.30;38.70
44723;DHT22;30451;48.638;10.624;2023-06-14T01:17:44;25.30;38.70
44723;DHT22;30451;48.638;10.624;2023-06-14T01:20:12;25.30;38.70
44723;DHT22;30451;48.638;10.624;2023-06-14T01:22:53;25.20;38.70
44723;DHT22;30451;48.638;10.624;2023-06-14T01:25:20;25.20;38.70
44723;DHT22;30451;48.638;10.624;2023-06-14T01:27:51;25.20;39.30
44723;DHT22;30451;48.638;10.624;2023-06-14T01:30:17;25.20;38.80
44723;DHT22;30451;48.638;10.624;2023-06-14T01:32:44;25.20;38.80
44723;DHT22;30451;48.638;10.624;2023-06-14T01:35:10;25.20;38.90
44723;DHT22;30451;48.638;10.624;2023-06-14T01:37:36;25.20;38.90
44723;DHT22;30451;48.638;10.624;2023-06-14T01:40:04;25.20;38.90
44723;DHT22;30451;48.638;10.624;2023-06-14T01:42:35;25.20;38.90
44723;DHT22;30451;48.638;10.624;2023-06-14T01:45:02;25.10;38.90
44723;DHT22;30451;48.638;10.624;2023-06-14T01:47:29;25.10;38.90
44723;DHT22;30451;48.638;10.624;2023-06-14T01:49:55;25.10;38.90
44723;DHT22;30451;48.638;10.624;2023-06-14T01:52:21;25.10;38.90
44723;DHT22;30451;48.638;10.624;2023-06-14T01:54:47;25.10;39.00
44723;DHT22;30451;48.638;10.624;2023-06-14T01:57:15;25.10;39.00
44723;DHT22;30451;48.638;10.624;2023-06-14T01:59:41;25.10;39.00
44723;DHT22;30451;48.638;10.624;2023-06-14T02:02:06;25.10;39.10
44723;DHT22;30451;48.638;10.624;2023-06-14T02:04:32;25.10;39.10
44723;DHT22;30451;48.638;10.624;2023-06-14T02:06:58;25.10;39.10
44723;DHT22;30451;48.638;10.624;2023-06-14T02:09:23;25.10;39.10
44723;DHT22;30451;48.638;10.624;2023-06-14T02:11:49;25.10;39.10
44723;DHT22;30451;48.638;10.624;2023-06-14T02:14:15;25.10;39.10
44723;DHT22;30451;48.638;10.624;2023-06-14T02:16:42;25.00;39.10
44723;DHT22;30451;48.638;10.624;2023-06-14T02:19:16;25.00;39.10
44723;DHT22;30451;48.638;10.624;2023-06-14T02:21:43;25.00;39.10
44723;DHT22;30451;48.638;10.624;2023-06-14T02:24:08;25.00;39.10
44723;DHT22;30451;48.638;10.624;2023-06-14T02:26:34;25.00;39.20
44723;DHT22;30451;48.638;10.624;2023-06-14T02:29:00;25.00;39.20
44723;DHT22;30451;48.638;10.624;2023-06-14T02:31:29;25.00;39.20
44723;DHT22;30451;48.638;10.624;2023-06-14T02:33:55;25.00;39.20
44723;DHT22;30451;48.638;10.624;2023-06-14T02:36:21;25.00;39.20
44723;DHT22;30451;48.638;10.624;2023-06-14T02:38:47;25.00;39.30
44723;DHT22;30451;48.638;10.624;2023-06-14T02:41:13;25.00;39.30
44723;DHT22;30451;48.638;10.624;2023-06-14T02:43:38;25.00;39.30
44723;DHT22;30451;48.638;10.624;2023-06-14T02:46:04;24.90;39.30
44723;DHT22;30451;48.638;10.624;2023-06-14T02:48:30;24.90;39.30
44723;DHT22;30451;48.638;10.624;2023-06-14T02:50:56;24.90;39.30
44723;DHT22;30451;48.638;10.624;2023-06-14T02:53:22;24.90;39.30
44723;DHT22;30451;48.638;10.624;2023-06-14T02:55:47;24.90;39.30
44723;DHT22;30451;48.638;10.624;2023-06-14T02:58:14;24.90;39.30
44723;DHT22;30451;48.638;10.624;2023-06-14T03:00:39;24.90;39.30
44723;DHT22;30451;48.638;10.624;2023-06-14T03:03:06;24.90;39.30
44723;DHT22;30451;48.638;10.624;2023-06-14T03:05:46;24.90;39.30
44723;DHT22;30451;48.638;10.624;2023-06-14T03:08:13;24.90;39.40
44723;DHT22;30451;48.638;10.624;2023-06-14T03:10:48;24.80;39.30
44723;DHT22;30451;48.638;10.624;2023-06-14T03:13:14;24.80;39.40
44723;DHT22;30451;48.638;10.624;2023-06-14T03:15:42;24.80;39.40
44723;DHT22;30451;48.638;10.624;2023-06-14T03:18:08;24.80;39.40
44723;DHT22;30451;48.638;10.624;2023-06-14T03:20:38;24.80;39.40
44723;DHT22;30451;48.638;10.624;2023-06-14T03:23:04;24.80;39.40
44723;DHT22;30451;48.638;10.624;2023-06-14T03:25:30;24.80;39.40
44723;DHT22;30451;48.638;10.624;2023-06-14T03:27:57;24.80;39.40
44723;DHT22;30451;48.638;10.624;2023-06-14T03:30:22;24.80;39.40
44723;DHT22;30451;48.638;10.624;2023-06-14T03:32:48;24.80;39.50
44723;DHT22;30451;48.638;10.624;2023-06-14T03:35:14;24.80;39.50
44723;DHT22;30451;48.638;10.624;2023-06-14T03:37:46;24.80;39.50
44723;DHT22;30451;48.638;10.624;2023-06-14T03:40:13;24.80;39.50
44723;DHT22;30451;48.638;10.624;2023-06-14T03:42:39;24.80;39.50
44723;DHT22;30451;48.638;10.624;2023-06-14T03:45:06;24.80;39.50
44723;DHT22;30451;48.638;10.624;2023-06-14T03:47:32;24.80;39.50
44723;DHT22;30451;48.638;10.624;2023-06-14T03:49:58;24.80;39.50
44723;DHT22;30451;48.638;10.624;2023-06-14T03:52:24;24.80;39.60
44723;DHT22;30451;48.638;10.624;2023-06-14T03:54:50;24.80;39.60
44723;DHT22;30451;48.638;10.624;2023-06-14T03:57:17;24.80;39.60
44723;DHT22;30451;48.638;10.624;2023-06-14T03:59:43;24.70;39.50
44723;DHT22;30451;48.638;10.624;2023-06-14T04:02:08;24.70;39.60
44723;DHT22;30451;48.638;10.624;2023-06-14T04:04:40;24.70;39.60
44723;DHT22;30451;48.638;10.624;2023-06-14T04:07:10;24.70;39.60
44723;DHT22;30451;48.638;10.624;2023-06-14T04:09:37;24.70;39.60
44723;DHT22;30451;48.638;10.624;2023-06-14T04:12:03;24.70;39.60
44723;DHT22;30451;48.638;10.624;2023-06-14T04:14:29;24.70;39.60
44723;DHT22;30451;48.638;10.624;2023-06-14T04:16:56;24.70;39.60
44723;DHT22;30451;48.638;10.624;2023-06-14T04:19:21;24.70;39.60
44723;DHT22;30451;48.638;10.624;2023-06-14T04:21:47;24.70;39.60
44723;DHT22;30451;48.638;10.624;2023-06-14T04:24:13;24.60;39.60
44723;DHT22;30451;48.638;10.624;2023-06-14T04:26:43;24.70;39.60
44723;DHT22;30451;48.638;10.624;2023-06-14T04:29:13;24.60;39.60
44723;DHT22;30451;48.638;10.624;2023-06-14T04:31:43;24.60;39.60
44723;DHT22;30451;48.638;10.624;2023-06-14T04:34:10;24.60;39.60
44723;DHT22;30451;48.638;10.624;2023-06-14T04:36:42;24.60;39.60
44723;DHT22;30451;48.638;10.624;2023-06-14T04:39:17;24.60;39.70
44723;DHT22;30451;48.638;10.624;2023-06-14T04:41:43;24.60;39.70
44723;DHT22;30451;48.638;10.624;2023-06-14T04:44:09;24.60;39.70
44723;DHT22;30451;48.638;10.624;2023-06-14T04:46:35;24.60;39.70
44723;DHT22;30451;48.638;10.624;2023-06-14T04:49:15;24.50;39.70
44723;DHT22;30451;48.638;10.624;2023-06-14T04:51:41;24.50;39.70
44723;DHT22;30451;48.638;10.624;2023-06-14T04:54:08;24.60;39.70
44723;DHT22;30451;48.638;10.624;2023-06-14T04:56:41;24.60;39.70
44723;DHT22;30451;48.638;10.624;2023-06-14T04:59:11;24.50;39.70
44723;DHT22;30451;48.638;10.624;2023-06-14T05:01:38;24.60;39.70
44723;DHT22;30451;48.638;10.624;2023-06-14T05:04:03;24.50;39.70
44723;DHT22;30451;48.638;10.624;2023-06-14T05:06:30;24.50;39.70
44723;DHT22;30451;48.638;10.624;2023-06-14T05:08:56;24.50;39.70
44723;DHT22;30451;48.638;10.624;2023-06-14T05:11:21;24.50;39.80
44723;DHT22;30451;48.638;10.624;2023-06-14T05:13:49;24.50;39.80
44723;DHT22;30451;48.638;10.624;2023-06-14T05:16:16;24.50;39.80
44723;DHT22;30451;48.638;10.624;2023-06-14T05:18:44;24.50;39.80
44723;DHT22;30451;48.638;10.624;2023-06-14T05:21:11;24.50;39.80
44723;DHT22;30451;48.638;10.624;2023-06-14T05:23:36;24.50;39.80
44723;DHT22;30451;48.638;10.624;2023-06-14T05:26:02;24.50;39.90
44723;DHT22;30451;48.638;10.624;2023-06-14T05:28:29;24.50;40.00
44723;DHT22;30451;48.638;10.624;2023-06-14T05:30:56;24.50;39.90
44723;DHT22;30451;48.638;10.624;2023-06-14T05:33:21;24.50;40.00
44723;DHT22;30451;48.638;10.624;2023-06-14T05:35:47;24.50;40.00
44723;DHT22;30451;48.638;10.624;2023-06-14T05:38:13;24.50;40.00
44723;DHT22;30451;48.638;10.624;2023-06-14T05:40:38;24.50;40.00
44723;DHT22;30451;48.638;10.624;2023-06-14T05:43:04;24.50;40.50
44723;DHT22;30451;48.638;10.624;2023-06-14T05:45:29;24.50;40.00
44723;DHT22;30451;48.638;10.624;2023-06-14T05:47:55;24.50;40.00
44723;DHT22;30451;48.638;10.624;2023-06-14T05:50:21;24.60;40.10
44723;DHT22;30451;48.638;10.624;2023-06-14T05:52:47;24.60;40.10
44723;DHT22;30451;48.638;10.624;2023-06-14T05:55:13;24.60;40.00
44723;DHT22;30451;48.638;10.624;2023-06-14T05:57:38;24.60;40.00
44723;DHT22;30451;48.638;10.624;2023-06-14T06:00:06;24.60;40.00
44723;DHT22;30451;48.638;10.624;2023-06-14T06:02:40;24.70;40.00
44723;DHT22;30451;48.638;10.624;2023-06-14T06:05:08;24.70;40.00
44723;DHT22;30451;48.638;10.624;2023-06-14T06:07:34;24.70;40.10
44723;DHT22;30451;48.638;10.624;2023-06-14T06:09:59;24.70;40.00
44723;DHT22;30451;48.638;10.624;2023-06-14T06:12:25;24.70;40.00
44723;DHT22;30451;48.638;10.624;2023-06-14T06:14:51;24.70;40.00
44723;DHT22;30451;48.638;10.624;2023-06-14T06:17:16;24.80;40.00
44723;DHT22;30451;48.638;10.624;2023-06-14T06:19:42;24.80;39.90
44723;DHT22;30451;48.638;10.624;2023-06-14T06:22:07;24.80;40.00
44723;DHT22;30451;48.638;10.624;2023-06-14T06:24:33;24.80;40.10
44723;DHT22;30451;48.638;10.624;2023-06-14T06:26:59;24.80;40.10
44723;DHT22;30451;48.638;10.624;2023-06-14T06:29:25;24.80;40.00
44723;DHT22;30451;48.638;10.624;2023-06-14T06:31:51;24.80;39.90
44723;DHT22;30451;48.638;10.624;2023-06-14T06:34:17;24.90;40.00
44723;DHT22;30451;48.638;10.624;2023-06-14T06:36:42;24.90;39.90
44723;DHT22;30451;48.638;10.624;2023-06-14T06:39:08;24.90;39.90
44723;DHT22;30451;48.638;10.624;2023-06-14T06:41:37;24.90;39.90
44723;DHT22;30451;48.638;10.624;2023-06-14T06:44:05;24.90;39.80
44723;DHT22;30451;48.638;10.624;2023-06-14T06:46:31;24.90;39.80
44723;DHT22;30451;48.638;10.624;2023-06-14T06:48:57;24.90;39.80
44723;DHT22;30451;48.638;10.624;2023-06-14T06:51:22;25.00;39.90
44723;DHT22;30451;48.638;10.624;2023-06-14T06:53:53;25.00;39.80
44723;DHT22;30451;48.638;10.624;2023-06-14T06:56:18;25.00;39.80
44723;DHT22;30451;48.638;10.624;2023-06-14T06:58:45;25.00;39.70
44723;DHT22;30451;48.638;10.624;2023-06-14T07:01:10;25.10;39.80
44723;DHT22;30451;48.638;10.624;2023-06-14T07:03:37;25.10;39.80
44723;DHT22;30451;48.638;10.624;2023-06-14T07:06:02;25.10;39.80
44723;DHT22;30451;48.638;10.624;2023-06-14T07:08:28;25.10;39.90
44723;DHT22;30451;48.638;10.624;2023-06-14T07:10:54;25.10;39.90
44723;DHT22;30451;48.638;10.624;2023-06-14T07:13:19;25.10;39.90
44723;DHT22;30451;48.638;10.624;2023-06-14T07:15:45;25.10;39.80
44723;DHT22;30451;48.638;10.624;2023-06-14T07:18:11;25.10;39.80
44723;DHT22;30451;48.638;10.624;2023-06-14T07:20:37;25.10;39.80
44723;DHT22;30451;48.638;10.624;2023-06-14T07:23:05;25.10;39.70
44723;DHT22;30451;48.638;10.624;2023-06-14T07:25:31;25.10;39.70
44723;DHT22;30451;48.638;10.624;2023-06-14T07:27:56;25.10;39.80
44723;DHT22;30451;48.638;10.624;2023-06-14T07:30:22;25.10;39.80
44723;DHT22;30451;48.638;10.624;2023-06-14T07:32:52;25.10;39.80
44723;DHT22;30451;48.638;10.624;2023-06-14T07:35:18;25.10;39.80
44723;DHT22;30451;48.638;10.624;2023-06-14T07:37:43;25.10;39.80
44723;DHT22;30451;48.638;10.624;2023-06-14T07:40:09;25.20;39.90
44723;DHT22;30451;48.638;10.624;2023-06-14T07:42:35;25.20;39.90
44723;DHT22;30451;48.638;10.624;2023-06-14T07:45:05;25.20;39.80
44723;DHT22;30451;48.638;10.624;2023-06-14T07:47:31;25.20;39.80
44723;DHT22;30451;48.638;10.624;2023-06-14T07:49:57;25.20;39.80
44723;DHT22;30451;48.638;10.624;2023-06-14T07:52:22;25.20;39.80
44723;DHT22;30451;48.638;10.624;2023-06-14T07:54:48;25.20;39.80
44723;DHT22;30451;48.638;10.624;2023-06-14T07:57:13;25.20;39.80
44723;DHT22;30451;48.638;10.624;2023-06-14T07:59:39;25.30;39.80
44723;DHT22;30451;48.638;10.624;2023-06-14T08:02:05;25.20;39.80
44723;DHT22;30451;48.638;10.624;2023-06-14T08:04:31;25.30;39.90
44723;DHT22;30451;48.638;10.624;2023-06-14T08:06:57;25.30;39.90
44723;DHT22;30451;48.638;10.624;2023-06-14T08:09:23;25.30;39.90
44723;DHT22;30451;48.638;10.624;2023-06-14T08:11:50;25.30;39.90
44723;DHT22;30451;48.638;10.624;2023-06-14T08:14:15;25.30;40.00
44723;DHT22;30451;48.638;10.624;2023-06-14T08:16:41;25.30;39.90
44723;DHT22;30451;48.638;10.624;2023-06-14T08:19:08;25.30;39.90
44723;DHT22;30451;48.638;10.624;2023-06-14T08:21:33;25.30;39.90
44723;DHT22;30451;48.638;10.624;2023-06-14T08:24:02;25.30;39.90
44723;DHT22;30451;48.638;10.624;2023-06-14T08:26:28;25.30;39.90
44723;DHT22;30451;48.638;10.624;2023-06-14T08:28:57;25.30;39.90
44723;DHT22;30451;48.638;10.624;2023-06-14T08:31:23;25.40;39.90
44723;DHT22;30451;48.638;10.624;2023-06-14T08:33:49;25.40;40.00
44723;DHT22;30451;48.638;10.624;2023-06-14T08:36:15;25.40;40.00
44723;DHT22;30451;48.638;10.624;2023-06-14T08:38:40;25.30;39.90
44723;DHT22;30451;48.638;10.624;2023-06-14T08:41:06;25.30;39.80
44723;DHT22;30451;48.638;10.624;2023-06-14T08:43:32;25.40;39.60
44723;DHT22;30451;48.638;10.624;2023-06-14T08:46:00;25.40;39.60
44723;DHT22;30451;48.638;10.624;2023-06-14T08:48:27;25.40;39.60
44723;DHT22;30451;48.638;10.624;2023-06-14T08:50:56;25.40;39.60
44723;DHT22;30451;48.638;10.624;2023-06-14T08:53:31;25.40;39.50
44723;DHT22;30451;48.638;10.624;2023-06-14T08:55:58;25.40;39.50
44723;DHT22;30451;48.638;10.624;2023-06-14T08:58:27;25.40;39.40
44723;DHT22;30451;48.638;10.624;2023-06-14T09:00:55;25.40;39.40
44723;DHT22;30451;48.638;10.624;2023-06-14T09:03:21;25.40;39.40
44723;DHT22;30451;48.638;10.624;2023-06-14T09:05:48;25.50;39.40
44723;DHT22;30451;48.638;10.624;2023-06-14T09:08:15;25.40;39.40
44723;DHT22;30451;48.638;10.624;2023-06-14T09:10:41;25.50;39.50
44723;DHT22;30451;48.638;10.624;2023-06-14T09:13:07;25.50;39.50
44723;DHT22;30451;48.638;10.624;2023-06-14T09:15:35;25.40;39.50
44723;DHT22;30451;48.638;10.624;2023-06-14T09:18:01;25.50;39.60
44723;DHT22;30451;48.638;10.624;2023-06-14T09:20:29;25.50;39.60
44723;DHT22;30451;48.638;10.624;2023-06-14T09:22:56;25.40;39.60
44723;DHT22;30451;48.638;10.624;2023-06-14T09:25:21;25.50;39.60
44723;DHT22;30451;48.638;10.624;2023-06-14T09:27:48;25.50;39.60
44723;DHT22;30451;48.638;10.624;2023-06-14T09:30:14;25.50;39.70
44723;DHT22;30451;48.638;10.624;2023-06-14T09:32:40;25.50;39.70
44723;DHT22;30451;48.638;10.624;2023-06-14T09:35:07;25.50;39.70
44723;DHT22;30451;48.638;10.624;2023-06-14T09:37:33;25.50;39.70
44723;DHT22;30451;48.638;10.624;2023-06-14T09:40:00;25.50;39.80
44723;DHT22;30451;48.638;10.624;2023-06-14T09:42:25;25.50;39.90
44723;DHT22;30451;48.638;10.624;2023-06-14T09:44:53;25.50;39.90
44723;DHT22;30451;48.638;10.624;2023-06-14T09:47:20;25.50;39.90
44723;DHT22;30451;48.638;10.624;2023-06-14T09:49:46;25.50;39.80
44723;DHT22;30451;48.638;10.624;2023-06-14T09:52:17;25.50;39.90
44723;DHT22;30451;48.638;10.624;2023-06-14T09:54:44;25.50;39.90
44723;DHT22;30451;48.638;10.624;2023-06-14T09:57:16;25.60;39.90
44723;DHT22;30451;48.638;10.624;2023-06-14T09:59:46;25.60;39.90
44723;DHT22;30451;48.638;10.624;2023-06-14T10:02:17;25.60;39.90
44723;DHT22;30451;48.638;10.624;2023-06-14T10:04:58;25.60;39.80
44723;DHT22;30451;48.638;10.624;2023-06-14T10:07:26;25.60;39.80
44723;DHT22;30451;48.638;10.624;2023-06-14T10:09:55;25.60;39.90
44723;DHT22;30451;48.638;10.624;2023-06-14T10:12:21;25.70;40.00
44723;DHT22;30451;48.638;10.624;2023-06-14T10:14:51;25.70;40.00
44723;DHT22;30451;48.638;10.624;2023-06-14T10:19:58;25.60;39.90
44723;DHT22;30451;48.638;10.624;2023-06-14T10:22:42;25.60;39.90
44723;DHT22;30451;48.638;10.624;2023-06-14T10:25:13;25.70;40.00
44723;DHT22;30451;48.638;10.624;2023-06-14T10:27:39;25.70;40.00
44723;DHT22;30451;48.638;10.624;2023-06-14T10:30:07;25.70;40.00
44723;DHT22;30451;48.638;10.624;2023-06-14T10:32:33;25.70;40.00
44723;DHT22;30451;48.638;10.624;2023-06-14T10:35:00;25.70;40.00
44723;DHT22;30451;48.638;10.624;2023-06-14T10:37:26;25.70;40.00
44723;DHT22;30451;48.638;10.624;2023-06-14T10:39:52;25.70;40.00
44723;DHT22;30451;48.638;10.624;2023-06-14T10:42:19;25.70;40.00
44723;DHT22;30451;48.638;10.624;2023-06-14T10:44:51;25.70;39.80
44723;DHT22;30451;48.638;10.624;2023-06-14T10:52:23;25.70;39.50
44723;DHT22;30451;48.638;10.624;2023-06-14T10:55:18;25.70;39.50
44723;DHT22;30451;48.638;10.624;2023-06-14T10:57:51;25.80;39.50
44723;DHT22;30451;48.638;10.624;2023-06-14T11:00:19;25.80;39.50
44723;DHT22;30451;48.638;10.624;2023-06-14T11:11:09;25.80;39.40
44723;DHT22;30451;48.638;10.624;2023-06-14T11:13:38;25.80;39.40
44723;DHT22;30451;48.638;10.624;2023-06-14T11:16:11;25.80;39.40
44723;DHT22;30451;48.638;10.624;2023-06-14T11:18:37;25.80;39.40
44723;DHT22;30451;48.638;10.624;2023-06-14T11:21:03;25.80;39.40
44723;DHT22;30451;48.638;10.624;2023-06-14T11:23:28;25.80;39.30
44723;DHT22;30451;48.638;10.624;2023-06-14T11:25:54;25.80;39.40
44723;DHT22;30451;48.638;10.624;2023-06-14T11:28:20;25.80;39.40
44723;DHT22;30451;48.638;10.624;2023-06-14T11:30:48;25.80;39.50
44723;DHT22;30451;48.638;10.624;2023-06-14T11:33:19;25.80;39.50
44723;DHT22;30451;48.638;10.624;2023-06-14T11:35:45;25.80;39.50
44723;DHT22;30451;48.638;10.624;2023-06-14T11:38:11;25.80;39.60
44723;DHT22;30451;48.638;10.624;2023-06-14T11:40:38;25.80;39.60
44723;DHT22;30451;48.638;10.624;2023-06-14T11:43:04;25.80;39.70
44723;DHT22;30451;48.638;10.624;2023-06-14T11:45:30;25.80;39.80
44723;DHT22;30451;48.638;10.624;2023-06-14T11:47:57;25.90;40.00
44723;DHT22;30451;48.638;10.624;2023-06-14T11:50:26;25.80;39.90
44723;DHT22;30451;48.638;10.624;2023-06-14T11:52:56;25.80;39.90
44723;DHT22;30451;48.638;10.624;2023-06-14T11:55:22;25.80;40.00
44723;DHT22;30451;48.638;10.624;2023-06-14T11:57:48;25.80;40.10
44723;DHT22;30451;48.638;10.624;2023-06-14T12:00:15;25.90;40.20
44723;DHT22;30451;48.638;10.624;2023-06-14T12:02:42;25.90;40.10
44723;DHT22;30451;48.638;10.624;2023-06-14T12:05:08;25.90;40.10
44723;DHT22;30451;48.638;10.624;2023-06-14T12:07:37;25.90;40.10
44723;DHT22;30451;48.638;10.624;2023-06-14T12:10:06;25.90;40.20
44723;DHT22;30451;48.638;10.624;2023-06-14T12:12:38;25.90;40.20
44723;DHT22;30451;48.638;10.624;2023-06-14T12:15:05;25.90;40.20
44723;DHT22;30451;48.638;10.624;2023-06-14T12:17:35;25.90;40.30
44723;DHT22;30451;48.638;10.624;2023-06-14T12:20:06;25.90;40.30
44723;DHT22;30451;48.638;10.624;2023-06-14T12:22:59;25.90;40.30
44723;DHT22;30451;48.638;10.624;2023-06-14T12:25:34;25.90;40.40
44723;DHT22;30451;48.638;10.624;2023-06-14T12:28:07;25.90;40.40
44723;DHT22;30451;48.638;10.624;2023-06-14T12:30:35;26.00;40.50
44723;DHT22;30451;48.638;10.624;2023-06-14T12:33:02;26.00;40.50
44723;DHT22;30451;48.638;10.624;2023-06-14T12:35:27;26.00;40.60
44723;DHT22;30451;48.638;10.624;2023-06-14T12:37:53;26.00;40.50
44723;DHT22;30451;48.638;10.624;2023-06-14T12:40:19;26.00;40.60
44723;DHT22;30451;48.638;10.624;2023-06-14T12:42:45;26.00;40.60
44723;DHT22;30451;48.638;10.624;2023-06-14T12:45:12;26.00;40.70
44723;DHT22;30451;48.638;10.624;2023-06-14T12:47:39;26.00;40.60
44723;DHT22;30451;48.638;10.624;2023-06-14T12:50:06;26.00;40.50
44723;DHT22;30451;48.638;10.624;2023-06-14T12:52:32;26.00;40.40
44723;DHT22;30451;48.638;10.624;2023-06-14T12:55:01;26.00;40.50
44723;DHT22;30451;48.638;10.624;2023-06-14T12:57:27;26.10;40.60
44723;DHT22;30451;48.638;10.624;2023-06-14T12:59:52;26.00;40.50
44723;DHT22;30451;48.638;10.624;2023-06-14T13:02:20;26.00;40.50
44723;DHT22;30451;48.638;10.624;2023-06-14T13:04:47;26.10;40.50
44723;DHT22;30451;48.638;10.624;2023-06-14T13:07:13;26.10;40.60
44723;DHT22;30451;48.638;10.624;2023-06-14T13:09:40;26.10;40.50
44723;DHT22;30451;48.638;10.624;2023-06-14T13:12:06;26.10;40.60
44723;DHT22;30451;48.638;10.624;2023-06-14T13:14:32;26.10;40.60
44723;DHT22;30451;48.638;10.624;2023-06-14T13:16:58;26.10;40.60
44723;DHT22;30451;48.638;10.624;2023-06-14T13:19:23;26.10;40.60
44723;DHT22;30451;48.638;10.624;2023-06-14T13:21:49;26.10;40.60
44723;DHT22;30451;48.638;10.624;2023-06-14T13:24:15;26.10;40.60
44723;DHT22;30451;48.638;10.624;2023-06-14T13:26:41;26.10;40.60
44723;DHT22;30451;48.638;10.624;2023-06-14T13:29:06;26.10;40.60
44723;DHT22;30451;48.638;10.624;2023-06-14T13:31:32;26.10;40.60
44723;DHT22;30451;48.638;10.624;2023-06-14T13:33:58;26.10;40.60
44723;DHT22;30451;48.638;10.624;2023-06-14T13:36:23;26.20;40.60
44723;DHT22;30451;48.638;10.624;2023-06-14T13:38:49;26.20;40.60
44723;DHT22;30451;48.638;10.624;2023-06-14T13:41:16;26.20;40.60
44723;DHT22;30451;48.638;10.624;2023-06-14T13:43:42;26.20;40.60
44723;DHT22;30451;48.638;10.624;2023-06-14T13:46:08;26.20;40.60
44723;DHT22;30451;48.638;10.624;2023-06-14T13:48:33;26.20;40.50
44723;DHT22;30451;48.638;10.624;2023-06-14T13:51:00;26.20;40.50
44723;DHT22;30451;48.638;10.624;2023-06-14T13:53:25;26.20;40.50
44723;DHT22;30451;48.638;10.624;2023-06-14T13:55:52;26.20;40.50
44723;DHT22;30451;48.638;10.624;2023-06-14T13:58:18;26.20;40.60
44723;DHT22;30451;48.638;10.624;2023-06-14T14:00:44;26.20;40.50
44723;DHT22;30451;48.638;10.624;2023-06-14T14:03:10;26.30;40.50
44723;DHT22;30451;48.638;10.624;2023-06-14T14:05:36;26.30;40.50
44723;DHT22;30451;48.638;10.624;2023-06-14T14:08:03;26.30;40.40
44723;DHT22;30451;48.638;10.624;2023-06-14T14:10:29;26.30;40.40
44723;DHT22;30451;48.638;10.624;2023-06-14T14:12:54;26.30;40.30
44723;DHT22;30451;48.638;10.624;2023-06-14T14:15:20;26.30;40.30
44723;DHT22;30451;48.638;10.624;2023-06-14T14:17:46;26.30;40.40
44723;DHT22;30451;48.638;10.624;2023-06-14T14:20:12;26.30;40.30
44723;DHT22;30451;48.638;10.624;2023-06-14T14:22:41;26.30;40.20
44723;DHT22;30451;48.638;10.624;2023-06-14T14:25:07;26.30;40.00
44723;DHT22;30451;48.638;10.624;2023-06-14T14:27:33;26.30;40.00
44723;DHT22;30451;48.638;10.624;2023-06-14T14:29:58;26.20;40.00
44723;DHT22;30451;48.638;10.624;2023-06-14T14:32:24;26.20;40.00
44723;DHT22;30451;48.638;10.624;2023-06-14T14:34:50;26.20;40.00
44723;DHT22;30451;48.638;10.624;2023-06-14T14:37:16;26.20;40.00
44723;DHT22;30451;48.638;10.624;2023-06-14T14:39:43;26.20;40.10
44723;DHT22;30451;48.638;10.624;2023-06-14T14:42:09;26.20;39.90
44723;DHT22;30451;48.638;10.624;2023-06-14T14:44:36;26.20;39.90
44723;DHT22;30451;48.638;10.624;2023-06-14T14:47:02;26.20;39.90
44723;DHT22;30451;48.638;10.624;2023-06-14T14:49:28;26.10;39.90
44723;DHT22;30451;48.638;10.624;2023-06-14T14:51:55;26.10;39.90
44723;DHT22;30451;48.638;10.624;2023-06-14T14:54:21;26.10;39.90
44723;DHT22;30451;48.638;10.624;2023-06-14T14:56:47;26.10;39.90
44723;DHT22;30451;48.638;10.624;2023-06-14T14:59:13;26.10;39.90
44723;DHT22;30451;48.638;10.624;2023-06-14T15:01:39;26.10;39.80
44723;DHT22;30451;48.638;10.624;2023-06-14T15:04:04;26.10;39.80
44723;DHT22;30451;48.638;10.624;2023-06-14T15:06:30;26.10;39.80
44723;DHT22;30451;48.638;10.624;2023-06-14T15:08:56;26.00;39.80
44723;DHT22;30451;48.638;10.624;2023-06-14T15:11:22;26.00;39.80
44723;DHT22;30451;48.638;10.624;2023-06-14T15:13:48;26.10;39.80
44723;DHT22;30451;48.638;10.624;2023-06-14T15:16:14;26.00;39.80
44723;DHT22;30451;48.638;10.624;2023-06-14T15:18:40;26.00;39.80
44723;DHT22;30451;48.638;10.624;2023-06-14T15:21:06;26.00;39.80
44723;DHT22;30451;48.638;10.624;2023-06-14T15:23:31;26.00;39.80
44723;DHT22;30451;48.638;10.624;2023-06-14T15:25:57;26.00;39.90
44723;DHT22;30451;48.638;10.624;2023-06-14T15:28:24;26.00;39.90
44723;DHT22;30451;48.638;10.624;2023-06-14T15:30:53;26.00;39.90
44723;DHT22;30451;48.638;10.624;2023-06-14T15:33:19;26.00;39.90
44723;DHT22;30451;48.638;10.624;2023-06-14T15:35:46;25.90;39.90